createdAt,value
2019-04-25T00:00:51.430Z,14.20
2019-04-25T00:03:25.144Z,14.20
2019-04-25T00:05:54.497Z,14.20
2019-04-25T00:08:23.924Z,14.10
2019-04-25T00:10:52.925Z,14.20
2019-04-25T00:13:22.392Z,14.30
2019-04-25T00:15:51.882Z,14.40
2019-04-25T00:18:22.116Z,14.30
2019-04-25T00:20:53.789Z,14.20
2019-04-25T00:23:22.720Z,14.10
2019-04-25T00:25:56.017Z,14.10
2019-04-25T00:28:25.085Z,14.00
2019-04-25T00:30:54.078Z,13.90
2019-04-25T00:33:23.164Z,13.90
2019-04-25T00:35:52.869Z,13.90
2019-04-25T00:38:25.187Z,13.80
2019-04-25T00:40:54.153Z,13.80
2019-04-25T00:43:24.773Z,13.80
2019-04-25T00:45:53.740Z,13.80
2019-04-25T00:48:22.731Z,13.70
2019-04-25T00:50:54.453Z,13.70
2019-04-25T00:53:22.289Z,13.70
2019-04-25T00:55:52.506Z,13.70
2019-04-25T00:58:23.432Z,13.60
2019-04-25T01:00:59.920Z,13.60
2019-04-25T01:03:31.695Z,13.60
2019-04-25T01:06:03.445Z,13.50
2019-04-25T01:08:31.952Z,13.50
2019-04-25T01:11:01.795Z,13.50
2019-04-25T01:13:32.199Z,13.50
2019-04-25T01:16:03.828Z,13.50
2019-04-25T01:18:33.602Z,13.40
2019-04-25T01:21:04.334Z,13.40
2019-04-25T01:23:36.327Z,13.40
2019-04-25T01:26:05.823Z,13.50
2019-04-25T01:28:35.555Z,13.60
2019-04-25T01:31:06.524Z,13.60
2019-04-25T01:33:35.456Z,13.60
2019-04-25T01:36:06.026Z,13.50
2019-04-25T01:38:39.282Z,13.40
2019-04-25T01:41:14.443Z,13.30
2019-04-25T01:43:55.155Z,13.30
2019-04-25T01:49:06.102Z,13.20
2019-04-25T01:51:35.045Z,13.10
2019-04-25T01:54:05.187Z,13.20
2019-04-25T01:56:34.080Z,13.20
2019-04-25T01:59:03.861Z,13.20
2019-04-25T02:01:38.614Z,13.10
2019-04-25T02:04:07.834Z,13.00
2019-04-25T02:06:36.800Z,13.10
2019-04-25T02:09:08.403Z,13.10
2019-04-25T02:11:56.856Z,13.10
2019-04-25T02:14:27.137Z,13.10
2019-04-25T02:16:57.146Z,13.10
2019-04-25T02:19:27.531Z,13.10
2019-04-25T02:21:56.545Z,13.10
2019-04-25T02:24:25.370Z,13.00
2019-04-25T02:26:55.243Z,13.00
2019-04-25T02:29:25.068Z,13.00
2019-04-25T02:31:58.521Z,13.00
2019-04-25T02:34:25.057Z,13.10
2019-04-25T02:36:58.103Z,13.00
2019-04-25T02:39:24.823Z,13.00
2019-04-25T02:41:57.856Z,13.00
2019-04-25T02:44:26.113Z,13.00
2019-04-25T02:47:01.015Z,12.90
2019-04-25T02:49:38.248Z,12.90
2019-04-25T02:52:13.077Z,12.80
2019-04-25T02:54:41.789Z,12.80
2019-04-25T02:57:10.744Z,12.70
2019-04-25T02:59:39.685Z,12.80
2019-04-25T03:02:09.849Z,12.80
2019-04-25T03:04:40.977Z,12.80
2019-04-25T03:07:11.230Z,12.80
2019-04-25T03:09:40.663Z,12.90
2019-04-25T03:12:09.630Z,12.90
2019-04-25T03:14:39.697Z,12.80
2019-04-25T03:17:09.924Z,12.80
2019-04-25T03:19:51.356Z,12.80
2019-04-25T03:22:26.419Z,12.70
2019-04-25T03:24:54.762Z,12.70
2019-04-25T03:27:23.083Z,12.60
2019-04-25T03:29:52.020Z,12.60
2019-04-25T03:32:20.952Z,12.60
2019-04-25T03:34:49.922Z,12.60
2019-04-25T03:37:18.853Z,12.60
2019-04-25T03:39:47.744Z,12.60
2019-04-25T03:42:16.685Z,12.60
2019-04-25T03:44:45.579Z,12.60
2019-04-25T03:47:17.463Z,12.60
2019-04-25T03:49:46.356Z,12.60
2019-04-25T03:52:15.348Z,12.60
2019-04-25T03:54:44.280Z,12.70
2019-04-25T03:57:14.521Z,12.60
2019-04-25T03:59:43.823Z,12.60
2019-04-25T04:02:13.491Z,12.60
2019-04-25T04:04:43.592Z,12.50
2019-04-25T04:07:14.324Z,12.50
2019-04-25T04:09:43.597Z,12.50
2019-04-25T04:12:14.494Z,12.50
2019-04-25T04:14:43.791Z,12.50
2019-04-25T04:17:29.147Z,12.50
2019-04-25T04:20:03.839Z,12.40
2019-04-25T04:22:34.444Z,12.40
2019-04-25T04:25:03.974Z,12.40
2019-04-25T04:27:33.669Z,12.40
2019-04-25T04:30:06.380Z,12.40
2019-04-25T04:32:36.596Z,12.40
2019-04-25T04:35:06.525Z,12.40
2019-04-25T04:37:36.191Z,12.40
2019-04-25T04:40:05.893Z,12.40
2019-04-25T04:42:34.886Z,12.40
2019-04-25T04:45:04.496Z,12.40
2019-04-25T04:47:34.819Z,12.50
2019-04-25T04:50:04.627Z,12.40
2019-04-25T04:52:34.093Z,12.50
2019-04-25T04:55:08.333Z,12.50
2019-04-25T04:57:36.207Z,12.50
2019-04-25T05:00:07.948Z,12.50
2019-04-25T05:02:47.444Z,12.60
2019-04-25T05:05:23.491Z,12.60
2019-04-25T05:07:57.936Z,12.60
2019-04-25T05:10:26.827Z,12.60
2019-04-25T05:12:55.835Z,12.70
2019-04-25T05:15:26.422Z,12.80
2019-04-25T05:17:55.307Z,12.90
2019-04-25T05:20:24.390Z,12.90
2019-04-25T05:22:54.950Z,13.00
2019-04-25T05:25:24.700Z,13.10
2019-04-25T05:28:02.058Z,13.20
2019-04-25T05:30:33.661Z,13.20
2019-04-25T05:33:04.768Z,13.30
2019-04-25T05:35:33.697Z,13.40
2019-04-25T05:38:03.443Z,13.50
2019-04-25T05:40:34.279Z,13.60
2019-04-25T05:43:04.883Z,13.60
2019-04-25T05:45:34.293Z,13.70
2019-04-25T05:48:04.314Z,13.80
2019-04-25T05:50:37.723Z,14.00
2019-04-25T05:53:06.820Z,14.00
2019-04-25T05:55:35.812Z,14.10
2019-04-25T05:58:06.006Z,14.20
2019-04-25T06:00:34.921Z,14.30
2019-04-25T06:03:03.865Z,14.30
2019-04-25T06:05:33.545Z,14.30
2019-04-25T06:08:04.564Z,14.40
2019-04-25T06:10:50.504Z,14.50
2019-04-25T06:13:33.430Z,14.60
2019-04-25T06:16:04.039Z,14.60
2019-04-25T06:18:40.401Z,14.60
2019-04-25T06:21:13.355Z,14.70
2019-04-25T06:23:51.000Z,14.80
2019-04-25T06:26:29.942Z,15.00
2019-04-25T06:28:57.109Z,15.10
2019-04-25T06:31:21.445Z,15.10
2019-04-25T06:33:50.740Z,15.20
2019-04-25T06:36:20.976Z,15.30
2019-04-25T06:38:51.043Z,15.40
2019-04-25T06:41:19.947Z,15.60
2019-04-25T06:43:50.540Z,15.70
2019-04-25T06:46:56.231Z,15.70
2019-04-25T06:49:29.817Z,15.80
2019-04-25T06:52:00.255Z,16.00
2019-04-25T06:54:29.659Z,16.20
2019-04-25T06:56:58.583Z,16.30
2019-04-25T06:59:28.738Z,16.30
2019-04-25T07:01:57.887Z,16.40
2019-04-25T07:04:27.939Z,16.40
2019-04-25T07:07:09.377Z,16.50
2019-04-25T07:09:29.571Z,16.60
2019-04-25T07:11:58.495Z,16.70
2019-04-25T07:14:28.199Z,16.70
2019-04-25T07:16:59.667Z,16.80
2019-04-25T07:19:29.848Z,16.90
2019-04-25T07:22:00.158Z,17.00
2019-04-25T07:24:29.167Z,17.10
2019-04-25T07:27:03.748Z,17.20
2019-04-25T07:29:38.955Z,17.30
2019-04-25T07:32:14.323Z,17.30
2019-04-25T07:34:43.794Z,17.40
2019-04-25T07:37:13.285Z,17.50
2019-04-25T07:39:44.236Z,17.60
2019-04-25T07:42:15.220Z,17.80
2019-04-25T07:44:50.596Z,17.90
2019-04-25T07:47:15.946Z,17.90
2019-04-25T07:49:45.284Z,18.10
2019-04-25T07:52:14.212Z,18.10
2019-04-25T07:54:44.005Z,18.20
2019-04-25T07:57:15.533Z,18.20
2019-04-25T07:59:44.528Z,18.20
2019-04-25T08:02:14.675Z,18.30
2019-04-25T08:04:44.308Z,18.40
2019-04-25T08:07:14.224Z,18.60
2019-04-25T08:09:44.303Z,18.70
2019-04-25T08:12:13.728Z,18.80
2019-04-25T08:14:48.083Z,18.90
2019-04-25T08:17:18.620Z,18.90
2019-04-25T08:19:47.925Z,18.70
2019-04-25T08:22:16.883Z,18.90
2019-04-25T08:24:45.816Z,19.00
2019-04-25T08:27:15.574Z,19.20
2019-04-25T08:29:45.484Z,19.30
2019-04-25T08:32:15.866Z,19.40
2019-04-25T08:34:44.841Z,19.40
2019-04-25T08:37:19.043Z,19.40
2019-04-25T08:39:45.164Z,19.30
2019-04-25T08:42:14.820Z,19.30
2019-04-25T08:44:44.946Z,19.60
2019-04-25T08:47:19.991Z,19.60
2019-04-25T08:49:56.175Z,19.60
2019-04-25T08:52:25.111Z,19.60
2019-04-25T08:55:01.537Z,19.50
2019-04-25T08:57:48.723Z,19.40
2019-04-25T09:00:19.267Z,19.50
2019-04-25T09:02:58.927Z,19.60
2019-04-25T09:05:29.575Z,19.90
2019-04-25T09:07:58.567Z,20.00
2019-04-25T09:10:27.503Z,20.10
2019-04-25T09:12:56.396Z,20.30
2019-04-25T09:15:25.328Z,20.50
2019-04-25T09:17:54.749Z,20.40
2019-04-25T09:20:24.108Z,20.40
2019-04-25T09:22:54.275Z,20.50
2019-04-25T09:25:24.009Z,20.50
2019-04-25T09:27:54.365Z,20.60
2019-04-25T09:30:24.122Z,20.70
2019-04-25T09:32:53.500Z,21.00
2019-04-25T09:35:23.626Z,21.10
2019-04-25T09:37:53.541Z,21.10
2019-04-25T09:40:23.981Z,21.20
2019-04-25T09:42:53.901Z,21.20
2019-04-25T09:45:27.120Z,21.20
2019-04-25T09:48:00.687Z,21.40
2019-04-25T09:50:40.120Z,21.60
2019-04-25T09:53:21.059Z,21.80
2019-04-25T09:55:56.547Z,21.90
2019-04-25T09:58:36.577Z,22.10
2019-04-25T10:01:08.883Z,22.10
2019-04-25T10:03:38.641Z,21.70
2019-04-25T10:06:07.691Z,21.50
2019-04-25T10:08:37.012Z,21.50
2019-04-25T10:11:06.013Z,21.70
2019-04-25T10:13:34.903Z,22.00
2019-04-25T10:16:05.503Z,21.90
2019-04-25T10:18:34.939Z,21.90
2019-04-25T10:21:05.504Z,22.10
2019-04-25T10:23:34.438Z,22.00
2019-04-25T10:26:03.955Z,21.90
2019-04-25T10:28:33.627Z,21.90
2019-04-25T10:31:03.608Z,21.80
2019-04-25T10:33:32.895Z,22.10
2019-04-25T10:36:01.868Z,22.40
2019-04-25T10:38:30.918Z,22.70
2019-04-25T10:40:59.943Z,23.10
2019-04-25T10:43:28.952Z,23.30
2019-04-25T10:45:57.954Z,23.60
2019-04-25T10:48:28.281Z,23.90
2019-04-25T10:50:57.283Z,23.80
2019-04-25T10:53:26.280Z,23.70
2019-04-25T10:55:55.275Z,23.60
2019-04-25T10:58:25.444Z,23.60
2019-04-25T11:00:54.507Z,23.70
2019-04-25T11:03:30.892Z,23.30
2019-04-25T11:05:59.947Z,23.50
2019-04-25T11:08:28.959Z,23.90
2019-04-25T11:10:59.064Z,23.70
2019-04-25T11:13:28.246Z,23.60
2019-04-25T11:15:57.300Z,23.40
2019-04-25T11:18:27.396Z,23.90
2019-04-25T11:20:56.388Z,24.00
2019-04-25T11:23:25.357Z,24.00
2019-04-25T11:25:54.310Z,23.50
2019-04-25T11:28:23.522Z,23.40
2019-04-25T11:30:54.174Z,23.60
2019-04-25T11:33:24.663Z,24.00
2019-04-25T11:35:56.266Z,24.30
2019-04-25T11:38:30.801Z,23.60
2019-04-25T11:41:01.507Z,23.50
2019-04-25T11:43:33.746Z,23.30
2019-04-25T13:10:29.145Z,21.50
